sensor_id;sensor_type;location;lat;lon;timestamp;temperature;humidity
78345;DHT22;67620;51.134;6.548;2023-12-28T00:01:22;9.10;81.40
78345;DHT22;67620;51.134;6.548;2023-12-28T00:03:48;9.00;82.30
78345;DHT22;67620;51.134;6.548;2023-12-28T00:06:14;9.10;81.40
78345;DHT22;67620;51.134;6.548;2023-12-28T00:08:40;9.00;81.60
78345;DHT22;67620;51.134;6.548;2023-12-28T00:11:06;9.00;82.70
78345;DHT22;67620;51.134;6.548;2023-12-28T00:13:31;8.80;83.60
78345;DHT22;67620;51.134;6.548;2023-12-28T00:15:57;8.80;84.20
78345;DHT22;67620;51.134;6.548;2023-12-28T00:18:22;8.70;84.70
78345;DHT22;67620;51.134;6.548;2023-12-28T00:20:48;8.80;84.30
78345;DHT22;67620;51.134;6.548;2023-12-28T00:23:13;8.70;84.90
78345;DHT22;67620;51.134;6.548;2023-12-28T00:25:39;8.80;84.80
78345;DHT22;67620;51.134;6.548;2023-12-28T00:28:04;8.80;85.00
78345;DHT22;67620;51.134;6.548;2023-12-28T00:30:30;8.80;85.40
78345;DHT22;67620;51.134;6.548;2023-12-28T00:32:57;8.80;85.10
78345;DHT22;67620;51.134;6.548;2023-12-28T00:35:23;8.80;85.20
78345;DHT22;67620;51.134;6.548;2023-12-28T00:37:48;8.80;84.60
78345;DHT22;67620;51.134;6.548;2023-12-28T00:40:14;8.80;85.20
78345;DHT22;67620;51.134;6.548;2023-12-28T00:42:40;8.80;85.10
78345;DHT22;67620;51.134;6.548;2023-12-28T00:45:07;8.80;85.30
78345;DHT22;67620;51.134;6.548;2023-12-28T00:47:32;8.80;85.40
78345;DHT22;67620;51.134;6.548;2023-12-28T00:49:58;8.80;85.40
78345;DHT22;67620;51.134;6.548;2023-12-28T00:52:23;8.80;85.30
78345;DHT22;67620;51.134;6.548;2023-12-28T00:54:49;8.80;85.20
78345;DHT22;67620;51.134;6.548;2023-12-28T00:57:14;8.80;85.20
78345;DHT22;67620;51.134;6.548;2023-12-28T00:59:40;8.80;85.40
78345;DHT22;67620;51.134;6.548;2023-12-28T01:02:05;8.80;85.10
78345;DHT22;67620;51.134;6.548;2023-12-28T01:04:31;8.80;85.30
78345;DHT22;67620;51.134;6.548;2023-12-28T01:06:56;8.80;85.00
78345;DHT22;67620;51.134;6.548;2023-12-28T01:09:23;8.80;85.20
78345;DHT22;67620;51.134;6.548;2023-12-28T01:11:49;8.80;85.40
78345;DHT22;67620;51.134;6.548;2023-12-28T01:14:15;8.90;84.80
78345;DHT22;67620;51.134;6.548;2023-12-28T01:16:41;8.90;85.00
78345;DHT22;67620;51.134;6.548;2023-12-28T01:19:06;8.90;84.90
78345;DHT22;67620;51.134;6.548;2023-12-28T01:21:32;8.80;85.20
78345;DHT22;67620;51.134;6.548;2023-12-28T01:23:58;8.90;85.10
78345;DHT22;67620;51.134;6.548;2023-12-28T01:26:23;8.80;85.60
78345;DHT22;67620;51.134;6.548;2023-12-28T01:28:49;8.80;85.00
78345;DHT22;67620;51.134;6.548;2023-12-28T01:31:14;8.80;84.80
78345;DHT22;67620;51.134;6.548;2023-12-28T01:33:40;8.80;85.40
78345;DHT22;67620;51.134;6.548;2023-12-28T01:36:16;8.80;86.00
78345;DHT22;67620;51.134;6.548;2023-12-28T01:38:42;8.80;85.60
78345;DHT22;67620;51.134;6.548;2023-12-28T01:41:07;8.80;85.30
78345;DHT22;67620;51.134;6.548;2023-12-28T01:43:33;8.80;85.70
78345;DHT22;67620;51.134;6.548;2023-12-28T01:45:59;8.80;85.20
78345;DHT22;67620;51.134;6.548;2023-12-28T01:48:24;8.90;85.70
78345;DHT22;67620;51.134;6.548;2023-12-28T01:50:50;8.90;85.90
78345;DHT22;67620;51.134;6.548;2023-12-28T01:53:15;8.80;85.70
78345;DHT22;67620;51.134;6.548;2023-12-28T01:55:41;8.80;85.70
78345;DHT22;67620;51.134;6.548;2023-12-28T01:58:06;8.80;85.50
78345;DHT22;67620;51.134;6.548;2023-12-28T02:00:32;8.90;85.10
78345;DHT22;67620;51.134;6.548;2023-12-28T02:03:00;8.80;86.10
78345;DHT22;67620;51.134;6.548;2023-12-28T02:05:26;8.90;84.90
78345;DHT22;67620;51.134;6.548;2023-12-28T02:07:51;8.90;84.90
78345;DHT22;67620;51.134;6.548;2023-12-28T02:10:17;8.90;85.30
78345;DHT22;67620;51.134;6.548;2023-12-28T02:12:42;8.90;85.00
78345;DHT22;67620;51.134;6.548;2023-12-28T02:15:08;8.80;85.40
78345;DHT22;67620;51.134;6.548;2023-12-28T02:18:07;8.90;85.80
78345;DHT22;67620;51.134;6.548;2023-12-28T02:20:35;9.00;85.30
78345;DHT22;67620;51.134;6.548;2023-12-28T02:23:01;8.90;85.70
78345;DHT22;67620;51.134;6.548;2023-12-28T02:25:27;8.80;86.30
78345;DHT22;67620;51.134;6.548;2023-12-28T02:27:53;8.80;86.30
78345;DHT22;67620;51.134;6.548;2023-12-28T02:30:21;8.80;86.40
78345;DHT22;67620;51.134;6.548;2023-12-28T02:33:15;8.80;86.40
78345;DHT22;67620;51.134;6.548;2023-12-28T02:36:00;8.90;86.30
78345;DHT22;67620;51.134;6.548;2023-12-28T02:38:28;9.00;85.60
78345;DHT22;67620;51.134;6.548;2023-12-28T02:40:55;8.90;85.90
78345;DHT22;67620;51.134;6.548;2023-12-28T02:43:21;8.90;85.90
78345;DHT22;67620;51.134;6.548;2023-12-28T02:45:47;8.90;85.80
78345;DHT22;67620;51.134;6.548;2023-12-28T02:48:13;9.00;85.80
78345;DHT22;67620;51.134;6.548;2023-12-28T02:50:38;9.00;85.50
78345;DHT22;67620;51.134;6.548;2023-12-28T02:53:04;9.00;85.60
78345;DHT22;67620;51.134;6.548;2023-12-28T02:55:30;9.00;86.00
78345;DHT22;67620;51.134;6.548;2023-12-28T02:57:57;9.00;86.10
78345;DHT22;67620;51.134;6.548;2023-12-28T03:00:25;8.90;86.40
78345;DHT22;67620;51.134;6.548;2023-12-28T03:02:51;8.80;86.60
78345;DHT22;67620;51.134;6.548;2023-12-28T03:05:17;8.80;86.50
78345;DHT22;67620;51.134;6.548;2023-12-28T03:07:43;8.80;86.60
78345;DHT22;67620;51.134;6.548;2023-12-28T03:10:09;8.70;86.60
78345;DHT22;67620;51.134;6.548;2023-12-28T03:12:36;8.80;86.70
78345;DHT22;67620;51.134;6.548;2023-12-28T03:15:02;8.80;86.50
78345;DHT22;67620;51.134;6.548;2023-12-28T03:17:28;8.80;86.40
78345;DHT22;67620;51.134;6.548;2023-12-28T03:19:56;8.80;86.80
78345;DHT22;67620;51.134;6.548;2023-12-28T03:22:22;8.80;86.50
78345;DHT22;67620;51.134;6.548;2023-12-28T03:24:47;8.80;86.50
78345;DHT22;67620;51.134;6.548;2023-12-28T03:27:14;8.70;87.10
78345;DHT22;67620;51.134;6.548;2023-12-28T03:29:40;8.50;87.70
78345;DHT22;67620;51.134;6.548;2023-12-28T03:32:06;8.50;87.70
78345;DHT22;67620;51.134;6.548;2023-12-28T03:34:31;8.60;87.30
78345;DHT22;67620;51.134;6.548;2023-12-28T03:36:57;8.60;86.90
78345;DHT22;67620;51.134;6.548;2023-12-28T03:39:23;8.60;87.10
78345;DHT22;67620;51.134;6.548;2023-12-28T03:41:49;8.60;87.20
78345;DHT22;67620;51.134;6.548;2023-12-28T03:44:14;8.50;87.80
78345;DHT22;67620;51.134;6.548;2023-12-28T03:46:40;8.50;87.50
78345;DHT22;67620;51.134;6.548;2023-12-28T03:49:05;8.50;87.50
78345;DHT22;67620;51.134;6.548;2023-12-28T03:51:31;8.50;87.60
78345;DHT22;67620;51.134;6.548;2023-12-28T03:53:56;8.40;88.00
78345;DHT22;67620;51.134;6.548;2023-12-28T03:56:23;8.50;87.70
78345;DHT22;67620;51.134;6.548;2023-12-28T03:58:50;8.40;87.90
78345;DHT22;67620;51.134;6.548;2023-12-28T04:01:21;8.30;88.30
78345;DHT22;67620;51.134;6.548;2023-12-28T04:03:47;8.30;88.70
78345;DHT22;67620;51.134;6.548;2023-12-28T04:06:12;8.30;88.00
78345;DHT22;67620;51.134;6.548;2023-12-28T04:08:39;8.40;87.60
78345;DHT22;67620;51.134;6.548;2023-12-28T04:11:04;8.50;87.60
78345;DHT22;67620;51.134;6.548;2023-12-28T04:13:30;8.60;86.50
78345;DHT22;67620;51.134;6.548;2023-12-28T04:15:55;8.60;86.50
78345;DHT22;67620;51.134;6.548;2023-12-28T04:18:21;8.50;87.00
78345;DHT22;67620;51.134;6.548;2023-12-28T04:20:47;8.40;87.40
78345;DHT22;67620;51.134;6.548;2023-12-28T04:23:13;8.30;87.90
78345;DHT22;67620;51.134;6.548;2023-12-28T04:25:38;8.30;87.50
78345;DHT22;67620;51.134;6.548;2023-12-28T04:28:04;8.30;88.00
78345;DHT22;67620;51.134;6.548;2023-12-28T04:30:29;8.40;87.20
78345;DHT22;67620;51.134;6.548;2023-12-28T04:32:55;8.40;87.00
78345;DHT22;67620;51.134;6.548;2023-12-28T04:35:20;8.40;87.10
78345;DHT22;67620;51.134;6.548;2023-12-28T04:37:46;8.30;87.40
78345;DHT22;67620;51.134;6.548;2023-12-28T04:40:11;8.40;87.00
78345;DHT22;67620;51.134;6.548;2023-12-28T04:42:39;8.30;87.40
78345;DHT22;67620;51.134;6.548;2023-12-28T04:45:05;8.40;87.10
78345;DHT22;67620;51.134;6.548;2023-12-28T04:47:31;8.30;87.20
78345;DHT22;67620;51.134;6.548;2023-12-28T04:49:57;8.20;87.50
78345;DHT22;67620;51.134;6.548;2023-12-28T04:52:22;8.20;87.80
78345;DHT22;67620;51.134;6.548;2023-12-28T04:54:48;8.40;87.40
78345;DHT22;67620;51.134;6.548;2023-12-28T04:57:13;8.70;85.90
78345;DHT22;67620;51.134;6.548;2023-12-28T04:59:39;8.80;85.60
78345;DHT22;67620;51.134;6.548;2023-12-28T05:02:05;8.90;85.10
78345;DHT22;67620;51.134;6.548;2023-12-28T05:04:30;8.90;85.00
78345;DHT22;67620;51.134;6.548;2023-12-28T05:06:56;8.80;85.40
78345;DHT22;67620;51.134;6.548;2023-12-28T05:09:21;8.80;85.40
78345;DHT22;67620;51.134;6.548;2023-12-28T05:11:47;8.90;85.10
78345;DHT22;67620;51.134;6.548;2023-12-28T05:14:12;8.90;85.00
78345;DHT22;67620;51.134;6.548;2023-12-28T05:16:38;9.00;84.50
78345;DHT22;67620;51.134;6.548;2023-12-28T05:19:03;9.00;84.60
78345;DHT22;67620;51.134;6.548;2023-12-28T05:21:29;8.90;85.00
78345;DHT22;67620;51.134;6.548;2023-12-28T05:23:54;9.00;84.80
78345;DHT22;67620;51.134;6.548;2023-12-28T05:26:20;9.00;84.60
78345;DHT22;67620;51.134;6.548;2023-12-28T05:28:46;9.00;84.10
78345;DHT22;67620;51.134;6.548;2023-12-28T05:31:11;9.10;83.70
78345;DHT22;67620;51.134;6.548;2023-12-28T05:33:38;9.20;83.10
78345;DHT22;67620;51.134;6.548;2023-12-28T05:36:04;9.10;83.30
78345;DHT22;67620;51.134;6.548;2023-12-28T05:38:30;9.10;83.40
78345;DHT22;67620;51.134;6.548;2023-12-28T05:40:56;9.10;83.80
78345;DHT22;67620;51.134;6.548;2023-12-28T05:43:21;9.10;84.20
78345;DHT22;67620;51.134;6.548;2023-12-28T05:45:47;9.10;83.90
78345;DHT22;67620;51.134;6.548;2023-12-28T05:48:12;9.10;83.60
78345;DHT22;67620;51.134;6.548;2023-12-28T05:50:38;9.10;83.60
78345;DHT22;67620;51.134;6.548;2023-12-28T05:53:03;9.20;83.20
78345;DHT22;67620;51.134;6.548;2023-12-28T05:55:29;9.20;83.40
78345;DHT22;67620;51.134;6.548;2023-12-28T05:57:54;9.10;83.40
78345;DHT22;67620;51.134;6.548;2023-12-28T06:00:20;9.10;83.40
78345;DHT22;67620;51.134;6.548;2023-12-28T06:02:45;9.20;83.00
78345;DHT22;67620;51.134;6.548;2023-12-28T06:05:12;9.20;82.80
78345;DHT22;67620;51.134;6.548;2023-12-28T06:07:37;9.20;82.80
78345;DHT22;67620;51.134;6.548;2023-12-28T06:10:03;9.20;82.30
78345;DHT22;67620;51.134;6.548;2023-12-28T06:12:29;9.20;83.10
78345;DHT22;67620;51.134;6.548;2023-12-28T06:14:55;9.20;82.30
78345;DHT22;67620;51.134;6.548;2023-12-28T06:17:20;9.20;82.30
78345;DHT22;67620;51.134;6.548;2023-12-28T06:19:46;9.20;82.90
78345;DHT22;67620;51.134;6.548;2023-12-28T06:22:11;9.20;82.30
78345;DHT22;67620;51.134;6.548;2023-12-28T06:24:40;9.20;82.70
78345;DHT22;67620;51.134;6.548;2023-12-28T06:27:06;9.30;82.20
78345;DHT22;67620;51.134;6.548;2023-12-28T06:29:31;9.30;82.60
78345;DHT22;67620;51.134;6.548;2023-12-28T06:31:56;9.30;81.90
78345;DHT22;67620;51.134;6.548;2023-12-28T06:34:22;9.40;81.70
78345;DHT22;67620;51.134;6.548;2023-12-28T06:36:48;9.30;81.70
78345;DHT22;67620;51.134;6.548;2023-12-28T06:39:13;9.30;82.20
78345;DHT22;67620;51.134;6.548;2023-12-28T06:41:39;9.30;81.90
78345;DHT22;67620;51.134;6.548;2023-12-28T06:44:04;9.30;82.10
78345;DHT22;67620;51.134;6.548;2023-12-28T06:46:30;9.30;81.40
78345;DHT22;67620;51.134;6.548;2023-12-28T06:48:55;9.30;82.00
78345;DHT22;67620;51.134;6.548;2023-12-28T06:51:23;9.30;82.30
78345;DHT22;67620;51.134;6.548;2023-12-28T06:53:49;9.30;81.70
78345;DHT22;67620;51.134;6.548;2023-12-28T06:56:15;9.20;82.20
78345;DHT22;67620;51.134;6.548;2023-12-28T06:58:40;9.20;82.50
78345;DHT22;67620;51.134;6.548;2023-12-28T07:01:06;9.30;81.70
78345;DHT22;67620;51.134;6.548;2023-12-28T07:03:32;9.30;81.70
78345;DHT22;67620;51.134;6.548;2023-12-28T07:05:58;9.30;81.70
78345;DHT22;67620;51.134;6.548;2023-12-28T07:08:24;9.20;82.20
78345;DHT22;67620;51.134;6.548;2023-12-28T07:10:50;9.20;81.70
78345;DHT22;67620;51.134;6.548;2023-12-28T07:13:15;9.20;82.10
78345;DHT22;67620;51.134;6.548;2023-12-28T07:15:41;9.20;82.00
78345;DHT22;67620;51.134;6.548;2023-12-28T07:18:06;9.20;81.40
78345;DHT22;67620;51.134;6.548;2023-12-28T07:20:32;9.30;81.40
78345;DHT22;67620;51.134;6.548;2023-12-28T07:22:57;9.30;82.00
78345;DHT22;67620;51.134;6.548;2023-12-28T07:25:23;9.20;82.10
78345;DHT22;67620;51.134;6.548;2023-12-28T07:27:48;9.20;82.00
78345;DHT22;67620;51.134;6.548;2023-12-28T07:30:14;9.30;81.00
78345;DHT22;67620;51.134;6.548;2023-12-28T07:32:42;9.30;81.30
78345;DHT22;67620;51.134;6.548;2023-12-28T07:35:08;9.30;81.30
78345;DHT22;67620;51.134;6.548;2023-12-28T07:37:34;9.20;81.70
78345;DHT22;67620;51.134;6.548;2023-12-28T07:40:00;9.30;80.80
78345;DHT22;67620;51.134;6.548;2023-12-28T07:42:25;9.30;81.10
78345;DHT22;67620;51.134;6.548;2023-12-28T07:44:51;9.20;81.70
78345;DHT22;67620;51.134;6.548;2023-12-28T07:47:16;9.20;81.90
78345;DHT22;67620;51.134;6.548;2023-12-28T07:49:42;9.20;81.70
78345;DHT22;67620;51.134;6.548;2023-12-28T07:52:07;9.10;82.10
78345;DHT22;67620;51.134;6.548;2023-12-28T07:54:33;9.20;81.80
78345;DHT22;67620;51.134;6.548;2023-12-28T07:56:59;9.20;81.90
78345;DHT22;67620;51.134;6.548;2023-12-28T07:59:25;9.20;82.00
78345;DHT22;67620;51.134;6.548;2023-12-28T08:01:50;9.20;82.00
78345;DHT22;67620;51.134;6.548;2023-12-28T08:04:16;9.30;81.90
78345;DHT22;67620;51.134;6.548;2023-12-28T08:06:41;9.30;80.90
78345;DHT22;67620;51.134;6.548;2023-12-28T08:09:07;9.40;80.90
78345;DHT22;67620;51.134;6.548;2023-12-28T08:11:34;9.30;81.00
78345;DHT22;67620;51.134;6.548;2023-12-28T08:13:59;9.30;81.20
78345;DHT22;67620;51.134;6.548;2023-12-28T08:16:25;9.30;81.10
78345;DHT22;67620;51.134;6.548;2023-12-28T08:18:51;9.30;80.80
78345;DHT22;67620;51.134;6.548;2023-12-28T08:21:17;9.30;80.70
78345;DHT22;67620;51.134;6.548;2023-12-28T08:23:43;9.20;82.00
78345;DHT22;67620;51.134;6.548;2023-12-28T08:26:08;9.10;81.90
78345;DHT22;67620;51.134;6.548;2023-12-28T08:28:34;8.90;82.80
78345;DHT22;67620;51.134;6.548;2023-12-28T08:30:59;8.90;82.90
78345;DHT22;67620;51.134;6.548;2023-12-28T08:33:25;8.90;82.60
78345;DHT22;67620;51.134;6.548;2023-12-28T08:35:51;8.80;82.60
78345;DHT22;67620;51.134;6.548;2023-12-28T08:38:16;8.70;84.10
78345;DHT22;67620;51.134;6.548;2023-12-28T08:40:42;8.70;83.80
78345;DHT22;67620;51.134;6.548;2023-12-28T08:43:09;8.90;82.80
78345;DHT22;67620;51.134;6.548;2023-12-28T08:45:35;8.80;83.10
78345;DHT22;67620;51.134;6.548;2023-12-28T08:48:01;8.90;82.70
78345;DHT22;67620;51.134;6.548;2023-12-28T08:50:26;9.00;82.30
78345;DHT22;67620;51.134;6.548;2023-12-28T08:52:52;9.20;81.60
78345;DHT22;67620;51.134;6.548;2023-12-28T08:55:17;9.20;81.90
78345;DHT22;67620;51.134;6.548;2023-12-28T08:57:43;9.20;81.60
78345;DHT22;67620;51.134;6.548;2023-12-28T09:00:09;9.30;80.90
78345;DHT22;67620;51.134;6.548;2023-12-28T09:02:35;9.40;81.00
78345;DHT22;67620;51.134;6.548;2023-12-28T09:05:01;9.60;79.90
78345;DHT22;67620;51.134;6.548;2023-12-28T09:07:26;9.80;79.50
78345;DHT22;67620;51.134;6.548;2023-12-28T09:09:52;9.90;78.60
78345;DHT22;67620;51.134;6.548;2023-12-28T09:12:18;9.90;78.40
78345;DHT22;67620;51.134;6.548;2023-12-28T09:14:43;10.00;78.70
78345;DHT22;67620;51.134;6.548;2023-12-28T09:17:09;10.00;78.50
78345;DHT22;67620;51.134;6.548;2023-12-28T09:19:34;10.20;77.90
78345;DHT22;67620;51.134;6.548;2023-12-28T09:22:00;10.30;77.50
78345;DHT22;67620;51.134;6.548;2023-12-28T09:24:25;10.50;76.70
78345;DHT22;67620;51.134;6.548;2023-12-28T09:26:51;10.50;77.10
78345;DHT22;67620;51.134;6.548;2023-12-28T09:29:16;10.50;76.90
78345;DHT22;67620;51.134;6.548;2023-12-28T09:31:42;10.60;76.70
78345;DHT22;67620;51.134;6.548;2023-12-28T09:34:07;10.60;75.50
78345;DHT22;67620;51.134;6.548;2023-12-28T09:36:33;10.70;76.10
78345;DHT22;67620;51.134;6.548;2023-12-28T09:38:58;10.90;74.50
78345;DHT22;67620;51.134;6.548;2023-12-28T09:41:27;10.80;75.40
78345;DHT22;67620;51.134;6.548;2023-12-28T09:44:09;10.60;75.40
78345;DHT22;67620;51.134;6.548;2023-12-28T09:46:36;10.60;75.20
78345;DHT22;67620;51.134;6.548;2023-12-28T09:49:04;10.60;75.90
78345;DHT22;67620;51.134;6.548;2023-12-28T09:51:29;10.60;76.30
78345;DHT22;67620;51.134;6.548;2023-12-28T09:53:56;10.40;76.20
78345;DHT22;67620;51.134;6.548;2023-12-28T09:56:22;10.50;76.00
78345;DHT22;67620;51.134;6.548;2023-12-28T09:58:49;10.50;75.90
78345;DHT22;67620;51.134;6.548;2023-12-28T10:01:17;10.50;75.80
78345;DHT22;67620;51.134;6.548;2023-12-28T10:03:43;10.50;75.70
78345;DHT22;67620;51.134;6.548;2023-12-28T10:06:08;10.50;76.10
78345;DHT22;67620;51.134;6.548;2023-12-28T10:08:34;10.50;75.90
78345;DHT22;67620;51.134;6.548;2023-12-28T10:11:00;10.60;76.00
78345;DHT22;67620;51.134;6.548;2023-12-28T10:13:26;10.50;76.30
78345;DHT22;67620;51.134;6.548;2023-12-28T10:15:52;10.50;76.50
78345;DHT22;67620;51.134;6.548;2023-12-28T10:18:20;10.50;75.10
78345;DHT22;67620;51.134;6.548;2023-12-28T10:20:50;10.60;75.60
78345;DHT22;67620;51.134;6.548;2023-12-28T10:23:17;10.60;76.10
78345;DHT22;67620;51.134;6.548;2023-12-28T10:25:42;10.70;74.70
78345;DHT22;67620;51.134;6.548;2023-12-28T10:28:09;10.80;75.10
78345;DHT22;67620;51.134;6.548;2023-12-28T10:30:35;10.90;75.10
78345;DHT22;67620;51.134;6.548;2023-12-28T10:33:00;11.10;75.00
78345;DHT22;67620;51.134;6.548;2023-12-28T10:35:26;11.10;73.50
78345;DHT22;67620;51.134;6.548;2023-12-28T10:37:52;11.00;74.00
78345;DHT22;67620;51.134;6.548;2023-12-28T10:40:21;11.00;73.50
78345;DHT22;67620;51.134;6.548;2023-12-28T10:42:57;11.00;73.60
78345;DHT22;67620;51.134;6.548;2023-12-28T10:45:25;10.90;75.00
78345;DHT22;67620;51.134;6.548;2023-12-28T10:48:07;10.90;73.90
78345;DHT22;67620;51.134;6.548;2023-12-28T10:50:45;10.90;74.20
78345;DHT22;67620;51.134;6.548;2023-12-28T10:56:13;11.00;73.10
78345;DHT22;67620;51.134;6.548;2023-12-28T10:59:05;11.00;72.80
78345;DHT22;67620;51.134;6.548;2023-12-28T11:01:31;11.10;73.00
78345;DHT22;67620;51.134;6.548;2023-12-28T11:04:09;11.10;73.30
78345;DHT22;67620;51.134;6.548;2023-12-28T11:06:35;11.10;73.40
78345;DHT22;67620;51.134;6.548;2023-12-28T11:09:01;11.10;73.40
78345;DHT22;67620;51.134;6.548;2023-12-28T11:11:28;11.00;72.20
78345;DHT22;67620;51.134;6.548;2023-12-28T11:13:55;11.00;73.10
78345;DHT22;67620;51.134;6.548;2023-12-28T11:16:22;11.00;73.00
78345;DHT22;67620;51.134;6.548;2023-12-28T11:18:49;10.90;72.90
78345;DHT22;67620;51.134;6.548;2023-12-28T11:21:16;10.90;73.30
78345;DHT22;67620;51.134;6.548;2023-12-28T11:23:43;10.80;74.10
78345;DHT22;67620;51.134;6.548;2023-12-28T11:26:17;10.80;74.40
78345;DHT22;67620;51.134;6.548;2023-12-28T11:28:42;10.70;73.40
78345;DHT22;67620;51.134;6.548;2023-12-28T11:31:14;10.70;73.90
78345;DHT22;67620;51.134;6.548;2023-12-28T11:33:47;10.80;74.20
78345;DHT22;67620;51.134;6.548;2023-12-28T11:36:35;10.90;73.70
78345;DHT22;67620;51.134;6.548;2023-12-28T11:39:03;10.90;72.40
78345;DHT22;67620;51.134;6.548;2023-12-28T11:41:33;11.00;72.70
78345;DHT22;67620;51.134;6.548;2023-12-28T11:44:04;11.00;73.10
78345;DHT22;67620;51.134;6.548;2023-12-28T11:46:32;11.10;73.10
78345;DHT22;67620;51.134;6.548;2023-12-28T11:49:04;11.30;72.40
78345;DHT22;67620;51.134;6.548;2023-12-28T11:51:30;11.30;72.20
78345;DHT22;67620;51.134;6.548;2023-12-28T11:53:56;11.30;71.50
78345;DHT22;67620;51.134;6.548;2023-12-28T11:56:21;11.30;72.00
78345;DHT22;67620;51.134;6.548;2023-12-28T11:58:47;11.30;72.10
78345;DHT22;67620;51.134;6.548;2023-12-28T12:01:13;11.30;71.60
78345;DHT22;67620;51.134;6.548;2023-12-28T12:03:38;11.40;71.30
78345;DHT22;67620;51.134;6.548;2023-12-28T12:06:04;11.40;71.70
78345;DHT22;67620;51.134;6.548;2023-12-28T12:08:30;11.40;72.50
78345;DHT22;67620;51.134;6.548;2023-12-28T12:11:05;11.50;71.50
78345;DHT22;67620;51.134;6.548;2023-12-28T12:13:31;11.50;72.50
78345;DHT22;67620;51.134;6.548;2023-12-28T12:15:57;11.50;70.50
78345;DHT22;67620;51.134;6.548;2023-12-28T12:18:23;11.50;70.00
78345;DHT22;67620;51.134;6.548;2023-12-28T12:20:49;11.40;72.00
78345;DHT22;67620;51.134;6.548;2023-12-28T12:23:15;11.40;71.00
78345;DHT22;67620;51.134;6.548;2023-12-28T12:25:41;11.40;71.30
78345;DHT22;67620;51.134;6.548;2023-12-28T12:28:07;11.40;70.70
78345;DHT22;67620;51.134;6.548;2023-12-28T12:30:32;11.40;71.50
78345;DHT22;67620;51.134;6.548;2023-12-28T12:32:58;11.30;71.70
78345;DHT22;67620;51.134;6.548;2023-12-28T12:35:24;11.30;71.10
78345;DHT22;67620;51.134;6.548;2023-12-28T12:37:50;11.30;70.30
78345;DHT22;67620;51.134;6.548;2023-12-28T12:40:17;11.30;70.90
78345;DHT22;67620;51.134;6.548;2023-12-28T12:42:52;11.30;71.30
78345;DHT22;67620;51.134;6.548;2023-12-28T12:45:19;11.30;71.40
78345;DHT22;67620;51.134;6.548;2023-12-28T12:47:46;11.40;70.40
78345;DHT22;67620;51.134;6.548;2023-12-28T12:50:12;11.30;71.30
78345;DHT22;67620;51.134;6.548;2023-12-28T12:52:38;11.30;71.20
78345;DHT22;67620;51.134;6.548;2023-12-28T12:55:04;11.30;72.10
78345;DHT22;67620;51.134;6.548;2023-12-28T12:57:30;11.20;72.10
78345;DHT22;67620;51.134;6.548;2023-12-28T12:59:56;11.20;73.00
78345;DHT22;67620;51.134;6.548;2023-12-28T13:02:25;11.20;72.10
78345;DHT22;67620;51.134;6.548;2023-12-28T13:04:54;11.30;72.70
78345;DHT22;67620;51.134;6.548;2023-12-28T13:07:20;11.30;72.70
78345;DHT22;67620;51.134;6.548;2023-12-28T13:09:47;11.20;71.30
78345;DHT22;67620;51.134;6.548;2023-12-28T13:12:12;11.20;71.40
78345;DHT22;67620;51.134;6.548;2023-12-28T13:14:38;11.10;71.30
78345;DHT22;67620;51.134;6.548;2023-12-28T13:17:03;11.10;72.40
78345;DHT22;67620;51.134;6.548;2023-12-28T13:19:29;11.20;72.30
78345;DHT22;67620;51.134;6.548;2023-12-28T13:21:54;11.20;71.20
78345;DHT22;67620;51.134;6.548;2023-12-28T13:24:20;11.10;71.70
78345;DHT22;67620;51.134;6.548;2023-12-28T13:26:45;11.10;72.60
78345;DHT22;67620;51.134;6.548;2023-12-28T13:29:11;11.10;72.60
78345;DHT22;67620;51.134;6.548;2023-12-28T13:31:36;11.00;72.20
78345;DHT22;67620;51.134;6.548;2023-12-28T13:34:03;11.00;71.40
78345;DHT22;67620;51.134;6.548;2023-12-28T13:36:28;10.90;72.90
78345;DHT22;67620;51.134;6.548;2023-12-28T13:38:54;10.90;73.50
78345;DHT22;67620;51.134;6.548;2023-12-28T13:41:19;10.90;73.90
78345;DHT22;67620;51.134;6.548;2023-12-28T13:43:45;10.90;71.60
78345;DHT22;67620;51.134;6.548;2023-12-28T13:46:11;10.90;72.10
78345;DHT22;67620;51.134;6.548;2023-12-28T13:48:36;10.90;72.60
78345;DHT22;67620;51.134;6.548;2023-12-28T13:51:05;10.80;71.80
78345;DHT22;67620;51.134;6.548;2023-12-28T13:53:31;10.90;71.00
78345;DHT22;67620;51.134;6.548;2023-12-28T13:55:59;10.90;72.70
78345;DHT22;67620;51.134;6.548;2023-12-28T13:58:25;10.90;71.20
78345;DHT22;67620;51.134;6.548;2023-12-28T14:00:50;10.90;71.40
78345;DHT22;67620;51.134;6.548;2023-12-28T14:03:16;10.90;71.50
78345;DHT22;67620;51.134;6.548;2023-12-28T14:05:41;10.80;71.30
78345;DHT22;67620;51.134;6.548;2023-12-28T14:08:07;10.80;71.80
78345;DHT22;67620;51.134;6.548;2023-12-28T14:10:33;10.70;72.60
78345;DHT22;67620;51.134;6.548;2023-12-28T14:12:58;10.70;73.40
78345;DHT22;67620;51.134;6.548;2023-12-28T14:15:24;10.70;71.90
78345;DHT22;67620;51.134;6.548;2023-12-28T14:17:51;10.70;70.80
78345;DHT22;67620;51.134;6.548;2023-12-28T14:20:17;10.70;71.40
78345;DHT22;67620;51.134;6.548;2023-12-28T14:22:43;10.60;72.90
78345;DHT22;67620;51.134;6.548;2023-12-28T14:25:09;10.50;73.40
78345;DHT22;67620;51.134;6.548;2023-12-28T14:27:37;10.40;72.50
78345;DHT22;67620;51.134;6.548;2023-12-28T14:30:03;10.40;72.50
78345;DHT22;67620;51.134;6.548;2023-12-28T14:32:30;10.50;72.60
78345;DHT22;67620;51.134;6.548;2023-12-28T14:34:56;10.40;72.60
78345;DHT22;67620;51.134;6.548;2023-12-28T14:37:21;10.30;73.30
78345;DHT22;67620;51.134;6.548;2023-12-28T14:39:47;10.40;72.20
78345;DHT22;67620;51.134;6.548;2023-12-28T14:42:12;10.40;72.10
78345;DHT22;67620;51.134;6.548;2023-12-28T14:44:39;10.30;72.80
78345;DHT22;67620;51.134;6.548;2023-12-28T14:47:04;10.30;73.20
78345;DHT22;67620;51.134;6.548;2023-12-28T14:49:30;10.20;72.80
78345;DHT22;67620;51.134;6.548;2023-12-28T14:51:55;10.20;72.70
78345;DHT22;67620;51.134;6.548;2023-12-28T14:54:21;10.10;72.70
78345;DHT22;67620;51.134;6.548;2023-12-28T14:56:47;10.00;72.90
78345;DHT22;67620;51.134;6.548;2023-12-28T14:59:13;9.90;73.90
78345;DHT22;67620;51.134;6.548;2023-12-28T15:01:39;10.00;73.10
78345;DHT22;67620;51.134;6.548;2023-12-28T15:04:05;9.80;73.90
78345;DHT22;67620;51.134;6.548;2023-12-28T15:06:31;9.80;74.60
78345;DHT22;67620;51.134;6.548;2023-12-28T15:08:57;9.80;73.90
78345;DHT22;67620;51.134;6.548;2023-12-28T15:11:23;9.80;73.70
78345;DHT22;67620;51.134;6.548;2023-12-28T15:13:48;9.80;73.30
78345;DHT22;67620;51.134;6.548;2023-12-28T15:16:14;9.70;73.60
78345;DHT22;67620;51.134;6.548;2023-12-28T15:18:40;9.60;74.80
78345;DHT22;67620;51.134;6.548;2023-12-28T15:21:06;9.70;74.40
78345;DHT22;67620;51.134;6.548;2023-12-28T15:23:32;9.60;74.50
78345;DHT22;67620;51.134;6.548;2023-12-28T15:25:58;9.60;74.30
78345;DHT22;67620;51.134;6.548;2023-12-28T15:28:23;9.50;75.10
78345;DHT22;67620;51.134;6.548;2023-12-28T15:30:51;9.50;75.30
78345;DHT22;67620;51.134;6.548;2023-12-28T15:33:16;9.50;75.00
78345;DHT22;67620;51.134;6.548;2023-12-28T15:35:42;9.50;74.30
78345;DHT22;67620;51.134;6.548;2023-12-28T15:38:07;9.40;74.90